Sikinos — 9HA2865 — position and weather

sailwx.info

Track history (hours):
 
Tides and Currents Weather Stations Pressure Air Temp Water Temp Dewpoint Dewpoint Depression Visibility Wind Speed Wind Dir Waves Ship Positions

Sikinos

Last reported at 2017-Oct-20 09:00 UTC. Time now 2017-Oct-20 09:05 UTC.
Position N 51°21' E 003°12'.

Length 90 m; draft 5.4 m.

Type: Ship (hazmat cat A). MMSI: 256462000.

Date/timePositionNaut miles runAvg speedWind from/ knotsBaromVisibWave heightAir tempDewpointWater temp
2017-Oct-20 09:00N 51°21' E 003°12'0 0.0
2017-Oct-20 08:30N 51°21' E 003°12'0 0.0
2017-Oct-20 08:00N 51°21' E 003°12'0 0.0
2017-Oct-20 07:30N 51°21' E 003°12'0 0.0
2017-Oct-20 07:00N 51°21' E 003°12'0 0.0
2017-Oct-20 06:30N 51°21' E 003°12'0 0.0
2017-Oct-20 06:00N 51°21' E 003°12'0 0.0
2017-Oct-20 05:27N 51°21' E 003°12'0 0.0
2017-Oct-20 04:57N 51°21' E 003°12'0 0.0
2017-Oct-20 04:27N 51°21' E 003°12'0 0.0
2017-Oct-20 04:00N 51°21' E 003°12'0 0.0
2017-Oct-20 03:30N 51°21' E 003°12'0 0.0
2017-Oct-20 03:00N 51°21' E 003°12'0 0.0
2017-Oct-20 02:30N 51°21' E 003°12'0 0.0
2017-Oct-20 02:00N 51°21' E 003°12'0 0.0
2017-Oct-20 01:30N 51°21' E 003°12'0 0.0
2017-Oct-20 01:00N 51°21' E 003°12'0 0.0
2017-Oct-20 00:30N 51°21' E 003°12'0 0.0
2017-Oct-19 23:57N 51°21' E 003°12'0 0.0
2017-Oct-19 23:30N 51°21' E 003°12'0 0.0
2017-Oct-19 23:00N 51°21' E 003°12'0 0.0
2017-Oct-19 22:30N 51°21' E 003°12'0 0.0
2017-Oct-19 21:57N 51°21' E 003°12'0 0.0
2017-Oct-19 21:30N 51°21' E 003°12'0 0.0
2017-Oct-19 21:00N 51°21' E 003°12'0 0.0
2017-Oct-19 20:30N 51°21' E 003°12'0 0.9
2017-Oct-19 20:00N 51°21' E 003°12'4 8.8
2017-Oct-19 19:30N 51°24' E 003°07'510.1
2017-Oct-19 19:00N 51°23' E 002°59'510.6
2017-Oct-19 18:30N 51°22' E 002°51'5 9.6
2017-Oct-19 18:00N 51°21' E 002°43'510.0
2017-Oct-19 17:28N 51°22' E 002°35'711.5
2017-Oct-19 16:51N 51°20' E 002°24'412.2
2017-Oct-19 16:30N 51°19' E 002°17'612.0
2017-Oct-19 16:00N 51°19' E 002°08'611.4
2017-Oct-19 15:30N 51°23' E 002°00'611.6
2017-Oct-19 15:00N 51°27' E 001°54'611.5
2017-Oct-19 14:30N 51°29' E 001°46'612.8
2017-Oct-19 14:01N 51°29' E 001°35'713.1
2017-Oct-19 13:30N 51°26' E 001°26'2 3.8
2017-Oct-19 13:00N 51°25' E 001°23'0 0.1
2017-Oct-19 12:30N 51°25' E 001°23'0 0.1
2017-Oct-19 12:00N 51°25' E 001°23'0 0.1
2017-Oct-19 11:30N 51°25' E 001°23'0 0.0
2017-Oct-19 11:00N 51°25' E 001°23'0 0.0
2017-Oct-19 10:30N 51°25' E 001°23'0 0.0
2017-Oct-19 10:00N 51°25' E 001°23'0 0.0
2017-Oct-19 09:30N 51°25' E 001°23'0 0.0
2017-Oct-19 08:58N 51°25' E 001°23'0 0.0
2017-Oct-19 08:30N 51°25' E 001°23'0 0.0
2017-Oct-19 08:00N 51°25' E 001°23'0 0.0
2017-Oct-19 07:30N 51°25' E 001°23'0 0.0
2017-Oct-19 07:00N 51°25' E 001°23'0 0.0
2017-Oct-19 06:30N 51°25' E 001°23'0 0.1
2017-Oct-19 06:00N 51°25' E 001°23'0 0.1
2017-Oct-19 05:30N 51°25' E 001°23'0 0.6
2017-Oct-19 05:00N 51°25' E 001°24'3 6.0
2017-Oct-19 04:30N 51°25' E 001°29'510.4
2017-Oct-19 04:00N 51°22' E 001°35'611.3
2017-Oct-19 03:30N 51°16' E 001°37'612.3
2017-Oct-19 03:00N 51°10' E 001°35'510.5
2017-Oct-19 02:30N 51°06' E 001°40'611.5
2017-Oct-19 02:00N 51°02' E 001°47'5 9.8
2017-Oct-19 01:30N 51°02' E 001°55'510.9
2017-Oct-19 01:00N 51°03' E 002°04'510.6
2017-Oct-19 00:30N 51°03' E 002°12'510.4
2017-Oct-19 00:00N 51°04' E 002°20'1 2.3
2017-Oct-18 23:30N 51°03' E 002°21'0 0.5
2017-Oct-18 22:58N 51°03' E 002°21'0 0.0
2017-Oct-18 22:28N 51°03' E 002°21'0 0.0
2017-Oct-18 21:31N 51°03' E 002°21'0 0.0
2017-Oct-18 21:13N 51°03' E 002°21'0 0.0
2017-Oct-18 20:58N 51°03' E 002°21'0 0.0
2017-Oct-18 20:28N 51°03' E 002°21'0 0.0
2017-Oct-18 19:58N 51°03' E 002°21'0 0.0
2017-Oct-18 19:28N 51°03' E 002°21'0 0.0
2017-Oct-18 18:55N 51°03' E 002°21'0 0.4
2017-Oct-18 18:26N 51°03' E 002°21'0 1.0
2017-Oct-18 17:58N 51°03' E 002°21'0 0.7
2017-Oct-18 17:27N 51°03' E 002°21'4 7.9
2017-Oct-18 16:59N 51°04' E 002°15'510.5
2017-Oct-18 16:30N 51°03' E 002°07'610.8
2017-Oct-18 15:56N 51°02' E 001°58'3 7.4
2017-Oct-18 15:31N 51°04' E 001°54'612.5
2017-Oct-18 15:00N 51°07' E 002°03'1211.6
2017-Oct-18 14:00N 51°10' E 002°20'510.8
2017-Oct-18 13:30N 51°14' E 002°27'510.5
2017-Oct-18 13:00N 51°18' E 002°33'610.6
2017-Oct-18 12:29N 51°21' E 002°40'4 8.7
2017-Oct-18 12:00N 51°22' E 002°46'510.9
2017-Oct-18 11:30N 51°22' E 002°55'510.7
2017-Oct-18 11:00N 51°22' E 003°03'510.1
2017-Oct-18 10:30N 51°22' E 003°11'1 2.4
2017-Oct-18 09:58N 51°21' E 003°12'0 0.0
2017-Oct-18 09:28N 51°21' E 003°12'0 0.0
2017-Oct-18 08:58N 51°21' E 003°12'0 0.0
2017-Oct-18 08:31N 51°21' E 003°12'0 0.0
2017-Oct-18 07:58N 51°21' E 003°12'0 0.0
2017-Oct-18 07:28N 51°21' E 003°12'0 0.0
2017-Oct-18 06:58N 51°21' E 003°12'0 0.0
2017-Oct-18 06:28N 51°21' E 003°12'0 0.0
2017-Oct-18 06:00N 51°21' E 003°12'0 0.0
2017-Oct-18 05:28N 51°21' E 003°12'0 0.0
2017-Oct-18 04:58N 51°21' E 003°12'0 0.0
2017-Oct-18 04:30N 51°21' E 003°12'0 0.0
2017-Oct-18 03:58N 51°21' E 003°12'0 0.0
2017-Oct-18 03:25N 51°21' E 003°12'0 0.0
2017-Oct-18 02:58N 51°21' E 003°12'0 0.0
2017-Oct-18 02:28N 51°21' E 003°12'0 0.0
2017-Oct-18 01:57N 51°21' E 003°12'0 0.0
2017-Oct-18 01:30N 51°21' E 003°12'0 0.0
2017-Oct-18 00:58N 51°21' E 003°12'0 0.0
2017-Oct-18 00:28N 51°21' E 003°12'0 0.0
2017-Oct-17 23:58N 51°21' E 003°12'0 0.0
2017-Oct-17 23:28N 51°21' E 003°12'0 0.0
2017-Oct-17 23:00N 51°21' E 003°12'0 0.0
2017-Oct-17 22:28N 51°21' E 003°12'0 0.0
2017-Oct-17 22:00N 51°21' E 003°12'0 0.0
2017-Oct-17 21:27N 51°21' E 003°12'0 0.0
2017-Oct-17 21:01N 51°21' E 003°12'0 0.0
2017-Oct-17 20:30N 51°21' E 003°12'0 0.0
2017-Oct-17 20:01N 51°21' E 003°12'0 0.0
2017-Oct-17 19:31N 51°21' E 003°12'0 0.0
2017-Oct-17 19:00N 51°21' E 003°12'0 0.0
2017-Oct-17 18:30N 51°21' E 003°12'0 0.0
2017-Oct-17 18:00N 51°21' E 003°12'0 0.0
2017-Oct-17 17:31N 51°21' E 003°12'0 0.0
2017-Oct-17 17:00N 51°21' E 003°12'0 0.0
2017-Oct-17 16:31N 51°21' E 003°12'0 0.0
2017-Oct-17 16:01N 51°21' E 003°12'0 0.0
2017-Oct-17 15:30N 51°21' E 003°12'0 0.0
2017-Oct-17 15:00N 51°21' E 003°12'0 0.0
2017-Oct-17 14:31N 51°21' E 003°12'0 0.0
2017-Oct-17 14:01N 51°21' E 003°12'0 0.0
2017-Oct-17 13:30N 51°21' E 003°12'0 0.0
2017-Oct-17 13:01N 51°21' E 003°12'0 0.0
2017-Oct-17 12:31N 51°21' E 003°12'0 0.0
2017-Oct-17 12:00N 51°21' E 003°12'0 0.0
2017-Oct-17 11:30N 51°21' E 003°12'0 0.0
2017-Oct-17 11:00N 51°21' E 003°12'0 0.0
2017-Oct-17 10:30N 51°21' E 003°12'0 0.0
2017-Oct-17 10:01N 51°21' E 003°12'0 0.0
2017-Oct-17 09:30N 51°21' E 003°12'0 0.0
2017-Oct-17 08:57N 51°21' E 003°12'0 0.0
2017-Oct-17 08:31N 51°21' E 003°12'0 0.0
2017-Oct-17 08:00N 51°21' E 003°12'0 0.0
2017-Oct-17 07:30N 51°21' E 003°12'0 0.0
2017-Oct-17 07:00N 51°21' E 003°12'0 0.0
2017-Oct-17 06:30N 51°21' E 003°12'0 0.0
2017-Oct-17 06:00N 51°21' E 003°12'0 0.0
2017-Oct-17 05:30N 51°21' E 003°12'0 0.0
2017-Oct-17 05:00N 51°21' E 003°12'0 0.0
2017-Oct-17 04:30N 51°21' E 003°12'0 0.0
2017-Oct-17 04:00N 51°21' E 003°12'0 0.0
2017-Oct-17 03:30N 51°21' E 003°12'0 0.0
2017-Oct-17 02:57N 51°21' E 003°12'0 0.9
2017-Oct-17 02:30N 51°21' E 003°12'5 9.1
2017-Oct-17 02:00N 51°22' E 003°05'612.6
2017-Oct-17 01:30N 51°22' E 002°55'713.1
2017-Oct-17 01:00N 51°22' E 002°44'610.0
2017-Oct-17 00:26N 51°22' E 002°35'5 9.1
2017-Oct-16 23:54N 51°21' E 002°28'4 9.8
2017-Oct-16 23:30N 51°19' E 002°22'510.0
2017-Oct-16 23:00N 51°17' E 002°15'510.2
2017-Oct-16 22:30N 51°14' E 002°08'510.6
2017-Oct-16 22:00N 51°12' E 002°01'1110.9
2017-Oct-16 21:00N 51°05' E 001°47'5 9.6
2017-Oct-16 20:30N 51°01' E 001°45'3 5.9
2017-Oct-16 20:00N 50°58' E 001°48'3 0.2
2017-Oct-16 07:02N 50°58' E 001°52'0 0.0
2017-Oct-16 07:00N 50°58' E 001°52'1 2.6
2017-Oct-16 06:30N 50°58' E 001°50'3 6.5
2017-Oct-16 06:00N 50°59' E 001°45'4 8.7
2017-Oct-16 05:30N 51°04' E 001°44'4 9.0
2017-Oct-16 05:00N 51°07' E 001°39'4 8.3
2017-Oct-16 04:30N 51°10' E 001°35'510.5
2017-Oct-16 04:00N 51°15' E 001°37'611.0
2017-Oct-16 03:31N 51°21' E 001°36'510.2
2017-Oct-16 03:00N 51°24' E 001°30'2 4.7
2017-Oct-16 02:30N 51°25' E 001°26'0 0.0
2017-Oct-16 02:00N 51°25' E 001°26'0 0.0
2017-Oct-16 01:30N 51°25' E 001°26'0 0.0
2017-Oct-16 01:00N 51°25' E 001°26'0 0.0
2017-Oct-16 00:30N 51°25' E 001°26'0 0.0
2017-Oct-16 00:00N 51°25' E 001°26'0 0.0
2017-Oct-15 23:30N 51°25' E 001°26'0 0.0
2017-Oct-15 23:00N 51°25' E 001°26'0 0.1
2017-Oct-15 22:30N 51°25' E 001°26'0 0.1
2017-Oct-15 22:00N 51°25' E 001°26'0 0.1
2017-Oct-15 21:30N 51°25' E 001°26'0 0.0
2017-Oct-15 21:00N 51°25' E 001°26'0 0.0
2017-Oct-15 20:30N 51°25' E 001°26'0 0.0
2017-Oct-15 20:00N 51°25' E 001°26'0 0.1
2017-Oct-15 19:30N 51°25' E 001°26'0 0.0
2017-Oct-15 19:00N 51°25' E 001°26'0 0.0
2017-Oct-15 18:30N 51°25' E 001°26'0 0.0
2017-Oct-15 18:00N 51°25' E 001°26'0 0.0
2017-Oct-15 17:30N 51°25' E 001°26'0 0.1
2017-Oct-15 17:00N 51°25' E 001°26'0 0.1
2017-Oct-15 16:30N 51°25' E 001°26'0 0.1
2017-Oct-15 16:00N 51°25' E 001°26'0 0.1
2017-Oct-15 15:30N 51°25' E 001°26'0 0.0
2017-Oct-15 15:00N 51°25' E 001°26'0 0.0
2017-Oct-15 14:00N 51°25' E 001°26'0 0.0
2017-Oct-15 13:30N 51°25' E 001°26'0 0.0
2017-Oct-15 13:00N 51°25' E 001°26'0 0.0
2017-Oct-15 12:30N 51°25' E 001°26'0 0.0
2017-Oct-15 12:01N 51°25' E 001°26'0 0.0
2017-Oct-15 11:30N 51°25' E 001°26'0 0.0
2017-Oct-15 11:00N 51°25' E 001°26'0 0.2
2017-Oct-15 10:30N 51°25' E 001°26'2 4.6
2017-Oct-15 10:01N 51°27' E 001°26'712.9
2017-Oct-15 09:30N 51°29' E 001°16'713.2
2017-Oct-15 09:00N 51°29' E 001°06'3 0.2
2017-Oct-14 16:02N 51°30' E 001°01'111.7
2017-Oct-14 15:59N 51°30' E 001°02'611.8
2017-Oct-14 15:30N 51°29' E 001°11'611.7
2017-Oct-14 15:00N 51°29' E 001°21'510.6
2017-Oct-14 14:30N 51°27' E 001°28'2 4.1
2017-Oct-14 14:00N 51°25' E 001°28'1 2.6
2017-Oct-14 13:30N 51°25' E 001°26'0 0.0
2017-Oct-14 13:00N 51°25' E 001°26'0 0.0
2017-Oct-14 12:30N 51°25' E 001°26'0 0.0
2017-Oct-14 12:00N 51°25' E 001°26'0 0.0
2017-Oct-14 11:30N 51°25' E 001°26'0 0.0
2017-Oct-14 11:00N 51°25' E 001°26'0 0.0
2017-Oct-14 10:30N 51°25' E 001°26'0 0.0
2017-Oct-14 10:00N 51°25' E 001°26'0 0.0
2017-Oct-14 09:30N 51°25' E 001°26'0 0.0
2017-Oct-14 09:00N 51°25' E 001°26'0 0.1
2017-Oct-14 08:30N 51°25' E 001°26'0 0.1
2017-Oct-14 08:00N 51°25' E 001°26'0 0.0
2017-Oct-14 07:30N 51°25' E 001°26'0 0.1
2017-Oct-14 07:01N 51°25' E 001°25'0 0.1
2017-Oct-14 06:30N 51°25' E 001°25'0 0.0
2017-Oct-14 06:00N 51°25' E 001°25'0 0.0
2017-Oct-14 05:30N 51°25' E 001°25'0 0.2
2017-Oct-14 05:00N 51°25' E 001°26'4 8.5
2017-Oct-14 04:30N 51°24' E 001°32'611.3
2017-Oct-14 04:00N 51°19' E 001°36'510.8
2017-Oct-14 03:30N 51°13' E 001°38'5 9.2
2017-Oct-14 03:00N 51°09' E 001°36'611.7
2017-Oct-14 02:30N 51°05' E 001°42'611.7
2017-Oct-14 02:00N 51°02' E 001°50'510.5
2017-Oct-14 01:30N 51°02' E 001°59'612.2
2017-Oct-14 01:00N 51°03' E 002°08'612.4
2017-Oct-14 00:30N 51°04' E 002°18'2 4.4
2017-Oct-13 23:59N 51°03' E 002°21'0 0.4
2017-Oct-13 23:30N 51°03' E 002°21'1 2.4
2017-Oct-13 22:56N 51°03' E 002°19'0 0.0
2017-Oct-13 22:29N 51°03' E 002°19'0 0.0
2017-Oct-13 21:59N 51°03' E 002°19'0 0.0
2017-Oct-13 21:26N 51°03' E 002°19'0 0.0
2017-Oct-13 20:59N 51°03' E 002°19'0 0.0
2017-Oct-13 20:26N 51°03' E 002°19'0 0.0
2017-Oct-13 19:47N 51°03' E 002°19'0 0.0
2017-Oct-13 19:26N 51°03' E 002°19'0 0.0
2017-Oct-13 18:59N 51°03' E 002°19'0 0.0
2017-Oct-13 17:53N 51°03' E 002°19'0 0.0
2017-Oct-13 17:29N 51°03' E 002°19'0 0.0
2017-Oct-13 16:53N 51°03' E 002°19'0 0.0
2017-Oct-13 16:29N 51°03' E 002°19'0 0.0
2017-Oct-13 15:53N 51°03' E 002°19'0 0.0
2017-Oct-13 15:29N 51°03' E 002°19'0 0.0
2017-Oct-13 14:56N 51°03' E 002°19'0 0.0
2017-Oct-13 14:29N 51°03' E 002°19'0 0.0
2017-Oct-13 13:50N 51°03' E 002°19'0 0.0
2017-Oct-13 13:17N 51°03' E 002°19'0 0.0
2017-Oct-13 12:59N 51°03' E 002°19'0 0.0
2017-Oct-13 12:20N 51°03' E 002°19'0 0.0
2017-Oct-13 11:53N 51°03' E 002°19'0 0.0
2017-Oct-13 11:29N 51°03' E 002°19'0 0.0
2017-Oct-13 10:59N 51°03' E 002°19'0 0.0
2017-Oct-13 10:26N 51°03' E 002°19'0 0.0
2017-Oct-13 09:59N 51°03' E 002°19'0 0.0
2017-Oct-13 09:17N 51°03' E 002°19'0 0.9
2017-Oct-13 08:58N 51°03' E 002°19'1 2.3
2017-Oct-13 08:23N 51°03' E 002°21'1 2.8
2017-Oct-13 08:00N 51°04' E 002°21'712.1
2017-Oct-13 07:28N 51°03' E 002°10'713.3
2017-Oct-13 06:56N 51°02' E 001°59'512.7
2017-Oct-13 06:30N 51°03' E 001°51'4 8.4
2017-Oct-13 06:00N 51°05' E 001°57'5 9.5
2017-Oct-13 05:31N 51°07' E 002°04'5 9.9
2017-Oct-13 05:00N 51°09' E 002°11'510.1
2017-Oct-13 04:30N 51°10' E 002°19'510.3
2017-Oct-13 03:59N 51°13' E 002°26'611.6
2017-Oct-13 03:29N 51°17' E 002°32'611.9
2017-Oct-13 03:00N 51°21' E 002°40'5 9.9
2017-Oct-13 02:30N 51°22' E 002°48'612.2
2017-Oct-13 02:00N 51°22' E 002°57'612.3
2017-Oct-13 01:30N 51°22' E 003°07'3 6.6
2017-Oct-13 01:00N 51°21' E 003°12'0 0.2
2017-Oct-13 00:29N 51°21' E 003°12'0 0.0
2017-Oct-12 23:59N 51°21' E 003°12'0 0.0
2017-Oct-12 23:29N 51°21' E 003°12'0 0.0
2017-Oct-12 22:59N 51°21' E 003°12'0 0.0
2017-Oct-12 22:29N 51°21' E 003°12'0 0.0
2017-Oct-12 21:59N 51°21' E 003°12'0 0.0
2017-Oct-12 21:29N 51°21' E 003°12'0 0.0
2017-Oct-12 20:59N 51°21' E 003°12'0 0.0
2017-Oct-12 20:29N 51°21' E 003°12'0 0.0
2017-Oct-12 19:59N 51°21' E 003°12'0 0.0
2017-Oct-12 19:29N 51°21' E 003°12'0 0.0
2017-Oct-12 18:59N 51°21' E 003°12'0 0.0
2017-Oct-12 18:29N 51°21' E 003°12'0 0.0
2017-Oct-12 17:59N 51°21' E 003°12'0 0.0
2017-Oct-12 17:29N 51°21' E 003°12'0 0.0
2017-Oct-12 16:59N 51°21' E 003°12'0 0.0
2017-Oct-12 16:29N 51°21' E 003°12'0 0.0
2017-Oct-12 15:59N 51°21' E 003°12'0 0.0
2017-Oct-12 15:26N 51°21' E 003°12'0 0.0
2017-Oct-12 14:59N 51°21' E 003°12'0 0.0
2017-Oct-12 14:26N 51°21' E 003°12'0 0.0
2017-Oct-12 13:59N 51°21' E 003°12'0 0.0
2017-Oct-12 13:29N 51°21' E 003°12'0 0.0
2017-Oct-12 12:59N 51°21' E 003°12'0 0.0
2017-Oct-12 12:29N 51°21' E 003°12'0 0.0
2017-Oct-12 11:53N 51°21' E 003°12'0 0.0
2017-Oct-12 11:29N 51°21' E 003°12'0 0.0
2017-Oct-12 10:59N 51°21' E 003°12'0 0.0
2017-Oct-12 10:26N 51°21' E 003°12'0 0.0
2017-Oct-12 09:59N 51°21' E 003°12'0 0.0
2017-Oct-12 09:29N 51°21' E 003°12'1 1.6
2017-Oct-12 09:00N 51°21' E 003°12'5 9.7
2017-Oct-12 08:30N 51°22' E 003°04'612.0
2017-Oct-12 08:01N 51°21' E 002°55'612.3
2017-Oct-12 07:31N 51°22' E 002°45'5 9.1
2017-Oct-12 07:00N 51°20' E 002°38'611.4
2017-Oct-12 06:30N 51°16' E 002°31'713.3
2017-Oct-12 06:00N 51°12' E 002°23'712.9
2017-Oct-12 05:29N 51°09' E 002°13'714.1
2017-Oct-12 05:00N 51°07' E 002°03'714.3
2017-Oct-12 04:30N 51°04' E 001°53'2 4.6
2017-Oct-12 04:00N 51°02' E 001°55'5 9.5
2017-Oct-12 03:31N 51°03' E 002°02'5 9.2
2017-Oct-12 03:00N 51°02' E 002°10'2 3.6
2017-Oct-12 02:30N 51°01' E 002°11'0 0.0
2017-Oct-12 01:51N 51°01' E 002°11'0 0.0
2017-Oct-12 01:30N 51°01' E 002°11'0 0.0
2017-Oct-12 01:00N 51°01' E 002°11'0 0.0
2017-Oct-12 00:30N 51°01' E 002°11'0 0.0
2017-Oct-11 23:57N 51°01' E 002°11'0 0.0
2017-Oct-11 23:27N 51°01' E 002°11'0 0.0
2017-Oct-11 23:00N 51°01' E 002°11'0 0.0
2017-Oct-11 22:30N 51°01' E 002°11'0 0.0
2017-Oct-11 22:00N 51°01' E 002°11'0 0.0
2017-Oct-11 21:27N 51°01' E 002°11'0 0.0
2017-Oct-11 21:00N 51°01' E 002°11'0 0.0
2017-Oct-11 20:30N 51°01' E 002°11'0 0.0
2017-Oct-11 20:00N 51°01' E 002°11'0 0.0
2017-Oct-11 19:27N 51°01' E 002°11'0 0.0
2017-Oct-11 19:00N 51°01' E 002°11'1 1.4
2017-Oct-11 18:30N 51°01' E 002°10'4 7.5
2017-Oct-11 17:57N 51°03' E 002°04'613.5
2017-Oct-11 17:29N 51°02' E 001°54'3 5.2
2017-Oct-11 16:55N 51°04' E 001°51'0 0.0
2017-Oct-11 00:00N 51°04' E 001°51'0 0.1
2017-Oct-10 23:25N 51°04' E 001°51'0 0.0
2017-Oct-10 23:00N 51°04' E 001°51'0 0.0
2017-Oct-10 22:27N 51°04' E 001°51'0 0.0
2017-Oct-10 22:00N 51°04' E 001°51'0 0.0
2017-Oct-10 21:15N 51°04' E 001°51'0 0.2
2017-Oct-10 20:54N 51°04' E 001°51'0 0.4
2017-Oct-10 20:30N 51°05' E 001°51'0 0.2
2017-Oct-10 20:00N 51°04' E 001°51'0 0.0
2017-Oct-10 19:30N 51°04' E 001°51'0 0.0
2017-Oct-10 19:00N 51°04' E 001°51'0 0.0
2017-Oct-10 18:30N 51°04' E 001°51'0 0.0
2017-Oct-10 18:00N 51°04' E 001°51'0 0.0
2017-Oct-10 17:30N 51°04' E 001°51'0 0.0
2017-Oct-10 17:00N 51°04' E 001°51'0 0.0
2017-Oct-10 16:30N 51°04' E 001°51'0 0.8
2017-Oct-10 16:00N 51°04' E 001°51'3 6.7
2017-Oct-10 15:30N 51°03' E 001°56'5 9.0
2017-Oct-10 15:00N 51°03' E 002°03'5 5.2
2017-Oct-10 13:58N 51°01' E 002°11'0 0.0
2017-Oct-10 13:28N 51°01' E 002°11'0 0.0
2017-Oct-10 12:49N 51°01' E 002°11'0 0.0
2017-Oct-10 12:28N 51°01' E 002°11'0 0.0
2017-Oct-10 11:58N 51°01' E 002°11'0 0.0
2017-Oct-10 11:28N 51°01' E 002°11'0 0.0
2017-Oct-10 10:58N 51°01' E 002°11'0 0.0
2017-Oct-10 10:28N 51°01' E 002°11'0 0.0
2017-Oct-10 09:55N 51°01' E 002°11'0 0.0
2017-Oct-10 09:28N 51°01' E 002°11'  
Track history (hours):
 
Tides and Currents Weather Stations Pressure Air Temp Water Temp Dewpoint Dewpoint Depression Visibility Wind Speed Wind Dir Waves Ship Positions

Sikinos

Last reported at 2017-Oct-20 09:00 UTC. Time now 2017-Oct-20 09:05 UTC.
Position N 51°21' E 003°12'.

Length 90 m; draft 5.4 m.

Type: Ship (hazmat cat A). MMSI: 256462000.

Date/timePositionNaut miles runAvg speedWind from/ knotsBaromVisibWave heightAir tempDewpointWater temp
2017-Oct-20 09:00N 51°21' E 003°12'0 0.0
2017-Oct-20 08:30N 51°21' E 003°12'0 0.0
2017-Oct-20 08:00N 51°21' E 003°12'0 0.0
2017-Oct-20 07:30N 51°21' E 003°12'0 0.0
2017-Oct-20 07:00N 51°21' E 003°12'0 0.0
2017-Oct-20 06:30N 51°21' E 003°12'0 0.0
2017-Oct-20 06:00N 51°21' E 003°12'0 0.0
2017-Oct-20 05:27N 51°21' E 003°12'0 0.0
2017-Oct-20 04:57N 51°21' E 003°12'0 0.0
2017-Oct-20 04:27N 51°21' E 003°12'0 0.0
2017-Oct-20 04:00N 51°21' E 003°12'0 0.0
2017-Oct-20 03:30N 51°21' E 003°12'0 0.0
2017-Oct-20 03:00N 51°21' E 003°12'0 0.0
2017-Oct-20 02:30N 51°21' E 003°12'0 0.0
2017-Oct-20 02:00N 51°21' E 003°12'0 0.0
2017-Oct-20 01:30N 51°21' E 003°12'0 0.0
2017-Oct-20 01:00N 51°21' E 003°12'0 0.0
2017-Oct-20 00:30N 51°21' E 003°12'0 0.0
2017-Oct-19 23:57N 51°21' E 003°12'0 0.0
2017-Oct-19 23:30N 51°21' E 003°12'0 0.0
2017-Oct-19 23:00N 51°21' E 003°12'0 0.0
2017-Oct-19 22:30N 51°21' E 003°12'0 0.0
2017-Oct-19 21:57N 51°21' E 003°12'0 0.0
2017-Oct-19 21:30N 51°21' E 003°12'0 0.0
2017-Oct-19 21:00N 51°21' E 003°12'0 0.0
2017-Oct-19 20:30N 51°21' E 003°12'0 0.9
2017-Oct-19 20:00N 51°21' E 003°12'4 8.8
2017-Oct-19 19:30N 51°24' E 003°07'510.1
2017-Oct-19 19:00N 51°23' E 002°59'510.6
2017-Oct-19 18:30N 51°22' E 002°51'5 9.6
2017-Oct-19 18:00N 51°21' E 002°43'510.0
2017-Oct-19 17:28N 51°22' E 002°35'711.5
2017-Oct-19 16:51N 51°20' E 002°24'412.2
2017-Oct-19 16:30N 51°19' E 002°17'612.0
2017-Oct-19 16:00N 51°19' E 002°08'611.4
2017-Oct-19 15:30N 51°23' E 002°00'611.6
2017-Oct-19 15:00N 51°27' E 001°54'611.5
2017-Oct-19 14:30N 51°29' E 001°46'612.8
2017-Oct-19 14:01N 51°29' E 001°35'713.1
2017-Oct-19 13:30N 51°26' E 001°26'2 3.8
2017-Oct-19 13:00N 51°25' E 001°23'0 0.1
2017-Oct-19 12:30N 51°25' E 001°23'0 0.1
2017-Oct-19 12:00N 51°25' E 001°23'0 0.1
2017-Oct-19 11:30N 51°25' E 001°23'0 0.0
2017-Oct-19 11:00N 51°25' E 001°23'0 0.0
2017-Oct-19 10:30N 51°25' E 001°23'0 0.0
2017-Oct-19 10:00N 51°25' E 001°23'0 0.0
2017-Oct-19 09:30N 51°25' E 001°23'0 0.0
2017-Oct-19 08:58N 51°25' E 001°23'0 0.0
2017-Oct-19 08:30N 51°25' E 001°23'0 0.0
2017-Oct-19 08:00N 51°25' E 001°23'0 0.0
2017-Oct-19 07:30N 51°25' E 001°23'0 0.0
2017-Oct-19 07:00N 51°25' E 001°23'0 0.0
2017-Oct-19 06:30N 51°25' E 001°23'0 0.1
2017-Oct-19 06:00N 51°25' E 001°23'0 0.1
2017-Oct-19 05:30N 51°25' E 001°23'0 0.6
2017-Oct-19 05:00N 51°25' E 001°24'3 6.0
2017-Oct-19 04:30N 51°25' E 001°29'510.4
2017-Oct-19 04:00N 51°22' E 001°35'611.3
2017-Oct-19 03:30N 51°16' E 001°37'612.3
2017-Oct-19 03:00N 51°10' E 001°35'510.5
2017-Oct-19 02:30N 51°06' E 001°40'611.5
2017-Oct-19 02:00N 51°02' E 001°47'5 9.8
2017-Oct-19 01:30N 51°02' E 001°55'510.9
2017-Oct-19 01:00N 51°03' E 002°04'510.6
2017-Oct-19 00:30N 51°03' E 002°12'510.4
2017-Oct-19 00:00N 51°04' E 002°20'1 2.3
2017-Oct-18 23:30N 51°03' E 002°21'0 0.5
2017-Oct-18 22:58N 51°03' E 002°21'0 0.0
2017-Oct-18 22:28N 51°03' E 002°21'0 0.0
2017-Oct-18 21:31N 51°03' E 002°21'0 0.0
2017-Oct-18 21:13N 51°03' E 002°21'0 0.0
2017-Oct-18 20:58N 51°03' E 002°21'0 0.0
2017-Oct-18 20:28N 51°03' E 002°21'0 0.0
2017-Oct-18 19:58N 51°03' E 002°21'0 0.0
2017-Oct-18 19:28N 51°03' E 002°21'0 0.0
2017-Oct-18 18:55N 51°03' E 002°21'0 0.4
2017-Oct-18 18:26N 51°03' E 002°21'0 1.0
2017-Oct-18 17:58N 51°03' E 002°21'0 0.7
2017-Oct-18 17:27N 51°03' E 002°21'4 7.9
2017-Oct-18 16:59N 51°04' E 002°15'510.5
2017-Oct-18 16:30N 51°03' E 002°07'610.8
2017-Oct-18 15:56N 51°02' E 001°58'3 7.4
2017-Oct-18 15:31N 51°04' E 001°54'612.5
2017-Oct-18 15:00N 51°07' E 002°03'1211.6
2017-Oct-18 14:00N 51°10' E 002°20'510.8
2017-Oct-18 13:30N 51°14' E 002°27'510.5
2017-Oct-18 13:00N 51°18' E 002°33'610.6
2017-Oct-18 12:29N 51°21' E 002°40'4 8.7
2017-Oct-18 12:00N 51°22' E 002°46'510.9
2017-Oct-18 11:30N 51°22' E 002°55'510.7
2017-Oct-18 11:00N 51°22' E 003°03'510.1
2017-Oct-18 10:30N 51°22' E 003°11'1 2.4
2017-Oct-18 09:58N 51°21' E 003°12'0 0.0
2017-Oct-18 09:28N 51°21' E 003°12'0 0.0
2017-Oct-18 08:58N 51°21' E 003°12'0 0.0
2017-Oct-18 08:31N 51°21' E 003°12'0 0.0
2017-Oct-18 07:58N 51°21' E 003°12'0 0.0
2017-Oct-18 07:28N 51°21' E 003°12'0 0.0
2017-Oct-18 06:58N 51°21' E 003°12'0 0.0
2017-Oct-18 06:28N 51°21' E 003°12'0 0.0
2017-Oct-18 06:00N 51°21' E 003°12'0 0.0
2017-Oct-18 05:28N 51°21' E 003°12'0 0.0
2017-Oct-18 04:58N 51°21' E 003°12'0 0.0
2017-Oct-18 04:30N 51°21' E 003°12'0 0.0
2017-Oct-18 03:58N 51°21' E 003°12'0 0.0
2017-Oct-18 03:25N 51°21' E 003°12'0 0.0
2017-Oct-18 02:58N 51°21' E 003°12'0 0.0
2017-Oct-18 02:28N 51°21' E 003°12'0 0.0
2017-Oct-18 01:57N 51°21' E 003°12'0 0.0
2017-Oct-18 01:30N 51°21' E 003°12'0 0.0
2017-Oct-18 00:58N 51°21' E 003°12'0 0.0
2017-Oct-18 00:28N 51°21' E 003°12'0 0.0
2017-Oct-17 23:58N 51°21' E 003°12'0 0.0
2017-Oct-17 23:28N 51°21' E 003°12'0 0.0
2017-Oct-17 23:00N 51°21' E 003°12'0 0.0
2017-Oct-17 22:28N 51°21' E 003°12'0 0.0
2017-Oct-17 22:00N 51°21' E 003°12'0 0.0
2017-Oct-17 21:27N 51°21' E 003°12'0 0.0
2017-Oct-17 21:01N 51°21' E 003°12'0 0.0
2017-Oct-17 20:30N 51°21' E 003°12'0 0.0
2017-Oct-17 20:01N 51°21' E 003°12'0 0.0
2017-Oct-17 19:31N 51°21' E 003°12'0 0.0
2017-Oct-17 19:00N 51°21' E 003°12'0 0.0
2017-Oct-17 18:30N 51°21' E 003°12'0 0.0
2017-Oct-17 18:00N 51°21' E 003°12'0 0.0
2017-Oct-17 17:31N 51°21' E 003°12'0 0.0
2017-Oct-17 17:00N 51°21' E 003°12'0 0.0
2017-Oct-17 16:31N 51°21' E 003°12'0 0.0
2017-Oct-17 16:01N 51°21' E 003°12'0 0.0
2017-Oct-17 15:30N 51°21' E 003°12'0 0.0
2017-Oct-17 15:00N 51°21' E 003°12'0 0.0
2017-Oct-17 14:31N 51°21' E 003°12'0 0.0
2017-Oct-17 14:01N 51°21' E 003°12'0 0.0
2017-Oct-17 13:30N 51°21' E 003°12'0 0.0
2017-Oct-17 13:01N 51°21' E 003°12'0 0.0
2017-Oct-17 12:31N 51°21' E 003°12'0 0.0
2017-Oct-17 12:00N 51°21' E 003°12'0 0.0
2017-Oct-17 11:30N 51°21' E 003°12'0 0.0
2017-Oct-17 11:00N 51°21' E 003°12'0 0.0
2017-Oct-17 10:30N 51°21' E 003°12'0 0.0
2017-Oct-17 10:01N 51°21' E 003°12'0 0.0
2017-Oct-17 09:30N 51°21' E 003°12'0 0.0
2017-Oct-17 08:57N 51°21' E 003°12'0 0.0
2017-Oct-17 08:31N 51°21' E 003°12'0 0.0
2017-Oct-17 08:00N 51°21' E 003°12'0 0.0
2017-Oct-17 07:30N 51°21' E 003°12'0 0.0
2017-Oct-17 07:00N 51°21' E 003°12'0 0.0
2017-Oct-17 06:30N 51°21' E 003°12'0 0.0
2017-Oct-17 06:00N 51°21' E 003°12'0 0.0
2017-Oct-17 05:30N 51°21' E 003°12'0 0.0
2017-Oct-17 05:00N 51°21' E 003°12'0 0.0
2017-Oct-17 04:30N 51°21' E 003°12'0 0.0
2017-Oct-17 04:00N 51°21' E 003°12'0 0.0
2017-Oct-17 03:30N 51°21' E 003°12'0 0.0
2017-Oct-17 02:57N 51°21' E 003°12'0 0.9
2017-Oct-17 02:30N 51°21' E 003°12'5 9.1
2017-Oct-17 02:00N 51°22' E 003°05'612.6
2017-Oct-17 01:30N 51°22' E 002°55'713.1
2017-Oct-17 01:00N 51°22' E 002°44'610.0
2017-Oct-17 00:26N 51°22' E 002°35'5 9.1
2017-Oct-16 23:54N 51°21' E 002°28'4 9.8
2017-Oct-16 23:30N 51°19' E 002°22'510.0
2017-Oct-16 23:00N 51°17' E 002°15'510.2
2017-Oct-16 22:30N 51°14' E 002°08'510.6
2017-Oct-16 22:00N 51°12' E 002°01'1110.9
2017-Oct-16 21:00N 51°05' E 001°47'5 9.6
2017-Oct-16 20:30N 51°01' E 001°45'3 5.9
2017-Oct-16 20:00N 50°58' E 001°48'3 0.2
2017-Oct-16 07:02N 50°58' E 001°52'0 0.0
2017-Oct-16 07:00N 50°58' E 001°52'1 2.6
2017-Oct-16 06:30N 50°58' E 001°50'3 6.5
2017-Oct-16 06:00N 50°59' E 001°45'4 8.7
2017-Oct-16 05:30N 51°04' E 001°44'4 9.0
2017-Oct-16 05:00N 51°07' E 001°39'4 8.3
2017-Oct-16 04:30N 51°10' E 001°35'510.5
2017-Oct-16 04:00N 51°15' E 001°37'611.0
2017-Oct-16 03:31N 51°21' E 001°36'510.2
2017-Oct-16 03:00N 51°24' E 001°30'2 4.7
2017-Oct-16 02:30N 51°25' E 001°26'0 0.0
2017-Oct-16 02:00N 51°25' E 001°26'0 0.0
2017-Oct-16 01:30N 51°25' E 001°26'0 0.0
2017-Oct-16 01:00N 51°25' E 001°26'0 0.0
2017-Oct-16 00:30N 51°25' E 001°26'0 0.0
2017-Oct-16 00:00N 51°25' E 001°26'0 0.0
2017-Oct-15 23:30N 51°25' E 001°26'0 0.0
2017-Oct-15 23:00N 51°25' E 001°26'0 0.1
2017-Oct-15 22:30N 51°25' E 001°26'0 0.1
2017-Oct-15 22:00N 51°25' E 001°26'0 0.1
2017-Oct-15 21:30N 51°25' E 001°26'0 0.0
2017-Oct-15 21:00N 51°25' E 001°26'0 0.0
2017-Oct-15 20:30N 51°25' E 001°26'0 0.0
2017-Oct-15 20:00N 51°25' E 001°26'0 0.1
2017-Oct-15 19:30N 51°25' E 001°26'0 0.0
2017-Oct-15 19:00N 51°25' E 001°26'0 0.0
2017-Oct-15 18:30N 51°25' E 001°26'0 0.0
2017-Oct-15 18:00N 51°25' E 001°26'0 0.0
2017-Oct-15 17:30N 51°25' E 001°26'0 0.1
2017-Oct-15 17:00N 51°25' E 001°26'0 0.1
2017-Oct-15 16:30N 51°25' E 001°26'0 0.1
2017-Oct-15 16:00N 51°25' E 001°26'0 0.1
2017-Oct-15 15:30N 51°25' E 001°26'0 0.0
2017-Oct-15 15:00N 51°25' E 001°26'0 0.0
2017-Oct-15 14:00N 51°25' E 001°26'0 0.0
2017-Oct-15 13:30N 51°25' E 001°26'0 0.0
2017-Oct-15 13:00N 51°25' E 001°26'0 0.0
2017-Oct-15 12:30N 51°25' E 001°26'0 0.0
2017-Oct-15 12:01N 51°25' E 001°26'0 0.0
2017-Oct-15 11:30N 51°25' E 001°26'0 0.0
2017-Oct-15 11:00N 51°25' E 001°26'0 0.2
2017-Oct-15 10:30N 51°25' E 001°26'2 4.6
2017-Oct-15 10:01N 51°27' E 001°26'712.9
2017-Oct-15 09:30N 51°29' E 001°16'713.2
2017-Oct-15 09:00N 51°29' E 001°06'3 0.2
2017-Oct-14 16:02N 51°30' E 001°01'111.7
2017-Oct-14 15:59N 51°30' E 001°02'611.8
2017-Oct-14 15:30N 51°29' E 001°11'611.7
2017-Oct-14 15:00N 51°29' E 001°21'510.6
2017-Oct-14 14:30N 51°27' E 001°28'2 4.1
2017-Oct-14 14:00N 51°25' E 001°28'1 2.6
2017-Oct-14 13:30N 51°25' E 001°26'0 0.0
2017-Oct-14 13:00N 51°25' E 001°26'0 0.0
2017-Oct-14 12:30N 51°25' E 001°26'0 0.0
2017-Oct-14 12:00N 51°25' E 001°26'0 0.0
2017-Oct-14 11:30N 51°25' E 001°26'0 0.0
2017-Oct-14 11:00N 51°25' E 001°26'0 0.0
2017-Oct-14 10:30N 51°25' E 001°26'0 0.0
2017-Oct-14 10:00N 51°25' E 001°26'0 0.0
2017-Oct-14 09:30N 51°25' E 001°26'0 0.0
2017-Oct-14 09:00N 51°25' E 001°26'0 0.1
2017-Oct-14 08:30N 51°25' E 001°26'0 0.1
2017-Oct-14 08:00N 51°25' E 001°26'0 0.0
2017-Oct-14 07:30N 51°25' E 001°26'0 0.1
2017-Oct-14 07:01N 51°25' E 001°25'0 0.1
2017-Oct-14 06:30N 51°25' E 001°25'0 0.0
2017-Oct-14 06:00N 51°25' E 001°25'0 0.0
2017-Oct-14 05:30N 51°25' E 001°25'0 0.2
2017-Oct-14 05:00N 51°25' E 001°26'4 8.5
2017-Oct-14 04:30N 51°24' E 001°32'611.3
2017-Oct-14 04:00N 51°19' E 001°36'510.8
2017-Oct-14 03:30N 51°13' E 001°38'5 9.2
2017-Oct-14 03:00N 51°09' E 001°36'611.7
2017-Oct-14 02:30N 51°05' E 001°42'611.7
2017-Oct-14 02:00N 51°02' E 001°50'510.5
2017-Oct-14 01:30N 51°02' E 001°59'612.2
2017-Oct-14 01:00N 51°03' E 002°08'612.4
2017-Oct-14 00:30N 51°04' E 002°18'2 4.4
2017-Oct-13 23:59N 51°03' E 002°21'0 0.4
2017-Oct-13 23:30N 51°03' E 002°21'1 2.4
2017-Oct-13 22:56N 51°03' E 002°19'0 0.0
2017-Oct-13 22:29N 51°03' E 002°19'0 0.0
2017-Oct-13 21:59N 51°03' E 002°19'0 0.0
2017-Oct-13 21:26N 51°03' E 002°19'0 0.0
2017-Oct-13 20:59N 51°03' E 002°19'0 0.0
2017-Oct-13 20:26N 51°03' E 002°19'0 0.0
2017-Oct-13 19:47N 51°03' E 002°19'0 0.0
2017-Oct-13 19:26N 51°03' E 002°19'0 0.0
2017-Oct-13 18:59N 51°03' E 002°19'0 0.0
2017-Oct-13 17:53N 51°03' E 002°19'0 0.0
2017-Oct-13 17:29N 51°03' E 002°19'0 0.0
2017-Oct-13 16:53N 51°03' E 002°19'0 0.0
2017-Oct-13 16:29N 51°03' E 002°19'0 0.0
2017-Oct-13 15:53N 51°03' E 002°19'0 0.0
2017-Oct-13 15:29N 51°03' E 002°19'0 0.0
2017-Oct-13 14:56N 51°03' E 002°19'0 0.0
2017-Oct-13 14:29N 51°03' E 002°19'0 0.0
2017-Oct-13 13:50N 51°03' E 002°19'0 0.0
2017-Oct-13 13:17N 51°03' E 002°19'0 0.0
2017-Oct-13 12:59N 51°03' E 002°19'0 0.0
2017-Oct-13 12:20N 51°03' E 002°19'0 0.0
2017-Oct-13 11:53N 51°03' E 002°19'0 0.0
2017-Oct-13 11:29N 51°03' E 002°19'0 0.0
2017-Oct-13 10:59N 51°03' E 002°19'0 0.0
2017-Oct-13 10:26N 51°03' E 002°19'0 0.0
2017-Oct-13 09:59N 51°03' E 002°19'0 0.0
2017-Oct-13 09:17N 51°03' E 002°19'0 0.9
2017-Oct-13 08:58N 51°03' E 002°19'1 2.3
2017-Oct-13 08:23N 51°03' E 002°21'1 2.8
2017-Oct-13 08:00N 51°04' E 002°21'712.1
2017-Oct-13 07:28N 51°03' E 002°10'713.3
2017-Oct-13 06:56N 51°02' E 001°59'512.7
2017-Oct-13 06:30N 51°03' E 001°51'4 8.4
2017-Oct-13 06:00N 51°05' E 001°57'5 9.5
2017-Oct-13 05:31N 51°07' E 002°04'5 9.9
2017-Oct-13 05:00N 51°09' E 002°11'510.1
2017-Oct-13 04:30N 51°10' E 002°19'510.3
2017-Oct-13 03:59N 51°13' E 002°26'611.6
2017-Oct-13 03:29N 51°17' E 002°32'611.9
2017-Oct-13 03:00N 51°21' E 002°40'5 9.9
2017-Oct-13 02:30N 51°22' E 002°48'612.2
2017-Oct-13 02:00N 51°22' E 002°57'612.3
2017-Oct-13 01:30N 51°22' E 003°07'3 6.6
2017-Oct-13 01:00N 51°21' E 003°12'0 0.2
2017-Oct-13 00:29N 51°21' E 003°12'0 0.0
2017-Oct-12 23:59N 51°21' E 003°12'0 0.0
2017-Oct-12 23:29N 51°21' E 003°12'0 0.0
2017-Oct-12 22:59N 51°21' E 003°12'0 0.0
2017-Oct-12 22:29N 51°21' E 003°12'0 0.0
2017-Oct-12 21:59N 51°21' E 003°12'0 0.0
2017-Oct-12 21:29N 51°21' E 003°12'0 0.0
2017-Oct-12 20:59N 51°21' E 003°12'0 0.0
2017-Oct-12 20:29N 51°21' E 003°12'0 0.0
2017-Oct-12 19:59N 51°21' E 003°12'0 0.0
2017-Oct-12 19:29N 51°21' E 003°12'0 0.0
2017-Oct-12 18:59N 51°21' E 003°12'0 0.0
2017-Oct-12 18:29N 51°21' E 003°12'0 0.0
2017-Oct-12 17:59N 51°21' E 003°12'0 0.0
2017-Oct-12 17:29N 51°21' E 003°12'0 0.0
2017-Oct-12 16:59N 51°21' E 003°12'0 0.0
2017-Oct-12 16:29N 51°21' E 003°12'0 0.0
2017-Oct-12 15:59N 51°21' E 003°12'0 0.0
2017-Oct-12 15:26N 51°21' E 003°12'0 0.0
2017-Oct-12 14:59N 51°21' E 003°12'0 0.0
2017-Oct-12 14:26N 51°21' E 003°12'0 0.0
2017-Oct-12 13:59N 51°21' E 003°12'0 0.0
2017-Oct-12 13:29N 51°21' E 003°12'0 0.0
2017-Oct-12 12:59N 51°21' E 003°12'0 0.0
2017-Oct-12 12:29N 51°21' E 003°12'0 0.0
2017-Oct-12 11:53N 51°21' E 003°12'0 0.0
2017-Oct-12 11:29N 51°21' E 003°12'0 0.0
2017-Oct-12 10:59N 51°21' E 003°12'0 0.0
2017-Oct-12 10:26N 51°21' E 003°12'0 0.0
2017-Oct-12 09:59N 51°21' E 003°12'0 0.0
2017-Oct-12 09:29N 51°21' E 003°12'1 1.6
2017-Oct-12 09:00N 51°21' E 003°12'5 9.7
2017-Oct-12 08:30N 51°22' E 003°04'612.0
2017-Oct-12 08:01N 51°21' E 002°55'612.3
2017-Oct-12 07:31N 51°22' E 002°45'5 9.1
2017-Oct-12 07:00N 51°20' E 002°38'611.4
2017-Oct-12 06:30N 51°16' E 002°31'713.3
2017-Oct-12 06:00N 51°12' E 002°23'712.9
2017-Oct-12 05:29N 51°09' E 002°13'714.1
2017-Oct-12 05:00N 51°07' E 002°03'714.3
2017-Oct-12 04:30N 51°04' E 001°53'2 4.6
2017-Oct-12 04:00N 51°02' E 001°55'5 9.5
2017-Oct-12 03:31N 51°03' E 002°02'5 9.2
2017-Oct-12 03:00N 51°02' E 002°10'2 3.6
2017-Oct-12 02:30N 51°01' E 002°11'0 0.0
2017-Oct-12 01:51N 51°01' E 002°11'0 0.0
2017-Oct-12 01:30N 51°01' E 002°11'0 0.0
2017-Oct-12 01:00N 51°01' E 002°11'0 0.0
2017-Oct-12 00:30N 51°01' E 002°11'0 0.0
2017-Oct-11 23:57N 51°01' E 002°11'0 0.0
2017-Oct-11 23:27N 51°01' E 002°11'0 0.0
2017-Oct-11 23:00N 51°01' E 002°11'0 0.0
2017-Oct-11 22:30N 51°01' E 002°11'0 0.0
2017-Oct-11 22:00N 51°01' E 002°11'0 0.0
2017-Oct-11 21:27N 51°01' E 002°11'0 0.0
2017-Oct-11 21:00N 51°01' E 002°11'0 0.0
2017-Oct-11 20:30N 51°01' E 002°11'0 0.0
2017-Oct-11 20:00N 51°01' E 002°11'0 0.0
2017-Oct-11 19:27N 51°01' E 002°11'0 0.0
2017-Oct-11 19:00N 51°01' E 002°11'1 1.4
2017-Oct-11 18:30N 51°01' E 002°10'4 7.5
2017-Oct-11 17:57N 51°03' E 002°04'613.5
2017-Oct-11 17:29N 51°02' E 001°54'3 5.2
2017-Oct-11 16:55N 51°04' E 001°51'0 0.0
2017-Oct-11 00:00N 51°04' E 001°51'0 0.1
2017-Oct-10 23:25N 51°04' E 001°51'0 0.0
2017-Oct-10 23:00N 51°04' E 001°51'0 0.0
2017-Oct-10 22:27N 51°04' E 001°51'0 0.0
2017-Oct-10 22:00N 51°04' E 001°51'0 0.0
2017-Oct-10 21:15N 51°04' E 001°51'0 0.2
2017-Oct-10 20:54N 51°04' E 001°51'0 0.4
2017-Oct-10 20:30N 51°05' E 001°51'0 0.2
2017-Oct-10 20:00N 51°04' E 001°51'0 0.0
2017-Oct-10 19:30N 51°04' E 001°51'0 0.0
2017-Oct-10 19:00N 51°04' E 001°51'0 0.0
2017-Oct-10 18:30N 51°04' E 001°51'0 0.0
2017-Oct-10 18:00N 51°04' E 001°51'0 0.0
2017-Oct-10 17:30N 51°04' E 001°51'0 0.0
2017-Oct-10 17:00N 51°04' E 001°51'0 0.0
2017-Oct-10 16:30N 51°04' E 001°51'0 0.8
2017-Oct-10 16:00N 51°04' E 001°51'3 6.7
2017-Oct-10 15:30N 51°03' E 001°56'5 9.0
2017-Oct-10 15:00N 51°03' E 002°03'5 5.2
2017-Oct-10 13:58N 51°01' E 002°11'0 0.0
2017-Oct-10 13:28N 51°01' E 002°11'0 0.0
2017-Oct-10 12:49N 51°01' E 002°11'0 0.0
2017-Oct-10 12:28N 51°01' E 002°11'0 0.0
2017-Oct-10 11:58N 51°01' E 002°11'0 0.0
2017-Oct-10 11:28N 51°01' E 002°11'0 0.0
2017-Oct-10 10:58N 51°01' E 002°11'0 0.0
2017-Oct-10 10:28N 51°01' E 002°11'0 0.0
2017-Oct-10 09:55N 51°01' E 002°11'0 0.0
2017-Oct-10 09:28N 51°01' E 002°11'  

Dump ship's entire track history